createdAt,value
2018-07-27T00:01:00.500Z,63.50
2018-07-27T00:03:35.646Z,64.10
2018-07-27T00:06:10.891Z,64.40
2018-07-27T00:08:46.167Z,64.40
2018-07-27T00:11:21.963Z,64.70
2018-07-27T00:13:57.426Z,64.50
2018-07-27T00:16:32.847Z,64.80
2018-07-27T00:19:08.039Z,65.00
2018-07-27T00:21:43.121Z,65.30
2018-07-27T00:24:18.368Z,65.70
2018-07-27T00:26:53.760Z,66.30
2018-07-27T00:29:29.171Z,66.50
2018-07-27T00:32:04.357Z,67.00
2018-07-27T00:34:39.544Z,67.50
2018-07-27T00:37:14.988Z,68.10
2018-07-27T00:39:50.326Z,68.30
2018-07-27T00:42:25.910Z,68.80
2018-07-27T00:45:01.093Z,69.30
2018-07-27T00:47:36.367Z,68.70
2018-07-27T00:50:11.466Z,68.90
2018-07-27T00:52:46.685Z,68.60
2018-07-27T00:55:21.838Z,67.50
2018-07-27T00:57:57.443Z,68.50
2018-07-27T01:00:32.533Z,68.00
2018-07-27T01:03:08.211Z,67.00
2018-07-27T01:05:43.226Z,67.80
2018-07-27T01:08:18.499Z,68.20
2018-07-27T01:10:53.603Z,68.50
2018-07-27T01:13:29.018Z,69.00
2018-07-27T01:16:04.267Z,68.40
2018-07-27T01:18:39.519Z,68.50
2018-07-27T01:21:14.905Z,68.50
2018-07-27T01:23:50.155Z,68.50
2018-07-27T01:26:25.219Z,68.40
2018-07-27T01:29:00.379Z,66.50
2018-07-27T01:34:10.458Z,67.50
2018-07-27T01:36:45.784Z,68.30
2018-07-27T01:39:21.051Z,68.70
2018-07-27T01:41:56.763Z,68.90
2018-07-27T01:44:32.331Z,69.00
2018-07-27T01:47:07.380Z,70.10
2018-07-27T01:49:45.757Z,70.60
2018-07-27T01:52:20.831Z,70.10
2018-07-27T01:54:56.137Z,69.80
2018-07-27T01:57:31.825Z,69.60
2018-07-27T02:00:07.346Z,68.80
2018-07-27T02:02:42.460Z,68.70
2018-07-27T02:05:17.624Z,69.20
2018-07-27T02:07:53.128Z,69.70
2018-07-27T02:10:28.892Z,70.00
2018-07-27T02:13:04.085Z,70.20
2018-07-27T02:15:39.148Z,70.30
2018-07-27T02:18:14.409Z,70.60
2018-07-27T02:20:52.567Z,70.90
2018-07-27T02:23:27.870Z,71.00
2018-07-27T02:28:38.596Z,71.50
2018-07-27T02:31:13.747Z,71.40
2018-07-27T02:36:23.567Z,70.50
2018-07-27T02:38:58.822Z,70.20
2018-07-27T02:41:34.232Z,69.90
2018-07-27T02:46:44.606Z,69.30
2018-07-27T02:49:19.996Z,69.00
2018-07-27T02:51:55.116Z,69.00
2018-07-27T02:54:30.246Z,68.70
2018-07-27T02:57:05.343Z,68.90
2018-07-27T02:59:40.730Z,68.30
2018-07-27T03:02:15.936Z,67.60
2018-07-27T03:04:51.139Z,67.80
2018-07-27T03:07:26.377Z,67.80
2018-07-27T03:10:01.576Z,68.00
2018-07-27T03:12:37.102Z,68.20
2018-07-27T03:15:12.300Z,68.10
2018-07-27T03:17:47.508Z,68.20
2018-07-27T03:20:22.683Z,68.50
2018-07-27T03:22:57.999Z,69.20
2018-07-27T03:25:33.225Z,69.50
2018-07-27T03:28:08.546Z,69.50
2018-07-27T03:33:18.927Z,70.90
2018-07-27T03:35:54.602Z,71.80
2018-07-27T03:38:29.675Z,71.30
2018-07-27T03:41:04.906Z,70.70
2018-07-27T03:43:40.442Z,70.50
2018-07-27T03:46:15.715Z,70.40
2018-07-27T03:48:50.827Z,70.60
2018-07-27T03:51:26.233Z,71.10
2018-07-27T03:54:01.361Z,71.20
2018-07-27T03:56:36.475Z,71.20
2018-07-27T03:59:11.762Z,71.40
2018-07-27T04:01:46.959Z,71.20
2018-07-27T04:04:25.207Z,71.10
2018-07-27T04:07:00.423Z,70.50
2018-07-27T04:09:35.644Z,70.60
2018-07-27T04:12:10.927Z,70.50
2018-07-27T04:14:46.298Z,70.00
2018-07-27T04:17:21.458Z,69.80
2018-07-27T04:19:56.547Z,70.00
2018-07-27T04:22:31.664Z,70.00
2018-07-27T04:25:06.971Z,69.90
2018-07-27T04:27:42.513Z,70.00
2018-07-27T04:30:17.667Z,69.40
2018-07-27T04:32:53.158Z,69.80
2018-07-27T04:35:28.486Z,70.00
2018-07-27T04:38:03.879Z,70.50
2018-07-27T04:40:39.151Z,70.90
2018-07-27T04:43:14.381Z,70.30
2018-07-27T04:48:24.580Z,70.80
2018-07-27T04:50:59.884Z,70.70
2018-07-27T04:53:35.370Z,70.70
2018-07-27T04:56:10.560Z,71.20
2018-07-27T04:58:45.943Z,71.30
2018-07-27T05:01:21.241Z,71.30
2018-07-27T05:03:56.444Z,71.10
2018-07-27T05:06:31.678Z,70.80
2018-07-27T05:09:13.309Z,71.00
2018-07-27T05:11:48.791Z,70.70
2018-07-27T05:14:24.190Z,70.50
2018-07-27T05:16:59.375Z,70.70
2018-07-27T05:19:34.547Z,71.10
2018-07-27T05:22:09.617Z,70.30
2018-07-27T05:24:45.213Z,70.20
2018-07-27T05:27:20.335Z,70.10
2018-07-27T05:29:55.662Z,70.50
2018-07-27T05:32:30.895Z,70.30
2018-07-27T05:35:06.875Z,70.10
2018-07-27T05:37:42.350Z,69.70
2018-07-27T05:40:17.439Z,69.10
2018-07-27T05:42:52.711Z,68.90
2018-07-27T05:45:28.079Z,69.70
2018-07-27T05:48:03.287Z,69.00
2018-07-27T05:50:38.463Z,69.70
2018-07-27T05:53:14.407Z,69.10
2018-07-27T05:55:49.730Z,68.60
2018-07-27T05:58:25.208Z,68.40
2018-07-27T06:01:00.583Z,68.60
2018-07-27T06:03:36.143Z,68.60
2018-07-27T06:06:11.667Z,68.90
2018-07-27T06:08:47.177Z,68.90
2018-07-27T06:11:22.896Z,68.80
2018-07-27T06:13:58.157Z,68.10
2018-07-27T06:16:33.508Z,68.10
2018-07-27T06:19:08.784Z,67.60
2018-07-27T06:21:44.014Z,67.80
2018-07-27T06:24:19.330Z,67.70
2018-07-27T06:26:54.373Z,67.80
2018-07-27T06:29:29.585Z,67.20
2018-07-27T06:32:04.876Z,67.60
2018-07-27T06:34:40.427Z,67.30
2018-07-27T06:37:15.660Z,66.80
2018-07-27T06:39:51.108Z,66.70
2018-07-27T06:42:26.291Z,66.40
2018-07-27T06:45:01.431Z,66.10
2018-07-27T06:47:36.705Z,66.30
2018-07-27T06:50:11.932Z,66.40
2018-07-27T06:52:47.144Z,65.80
2018-07-27T06:55:22.472Z,65.70
2018-07-27T06:57:57.588Z,65.40
2018-07-27T07:00:32.971Z,65.30
2018-07-27T07:03:08.247Z,65.40
2018-07-27T07:05:43.497Z,64.70
2018-07-27T07:08:18.827Z,64.50
2018-07-27T07:10:54.293Z,63.70
2018-07-27T07:13:29.349Z,63.80
2018-07-27T07:16:05.504Z,63.40
2018-07-27T07:18:40.518Z,63.40
2018-07-27T07:21:15.652Z,64.00
2018-07-27T07:23:51.191Z,64.20
2018-07-27T07:26:26.674Z,63.20
2018-07-27T07:29:01.817Z,63.50
2018-07-27T07:31:37.115Z,62.60
2018-07-27T07:34:12.282Z,63.10
2018-07-27T07:36:47.627Z,63.30
2018-07-27T07:39:22.939Z,62.00
2018-07-27T07:41:58.713Z,62.40
2018-07-27T07:44:34.142Z,62.60
2018-07-27T07:47:09.788Z,61.60
2018-07-27T07:49:44.851Z,61.50
2018-07-27T07:52:20.174Z,61.20
2018-07-27T07:54:55.437Z,60.80
2018-07-27T07:57:30.595Z,60.90
2018-07-27T08:00:07.237Z,60.30
2018-07-27T08:02:42.377Z,60.30
2018-07-27T08:05:17.572Z,60.00
2018-07-27T08:07:53.112Z,60.00
2018-07-27T08:10:28.359Z,59.70
2018-07-27T08:13:03.502Z,59.60
2018-07-27T08:15:39.382Z,59.20
2018-07-27T08:18:14.674Z,58.90
2018-07-27T08:20:49.887Z,58.60
2018-07-27T08:23:25.111Z,58.50
2018-07-27T08:27:04.755Z,58.90
2018-07-27T08:29:42.021Z,58.10
2018-07-27T08:32:17.312Z,58.10
2018-07-27T08:34:52.694Z,58.30
2018-07-27T08:37:27.812Z,58.20
2018-07-27T08:40:03.235Z,57.70
2018-07-27T08:42:38.539Z,56.70
2018-07-27T08:45:13.663Z,56.70
2018-07-27T08:47:48.810Z,56.90
2018-07-27T08:50:24.076Z,56.50
2018-07-27T08:55:34.019Z,56.50
2018-07-27T08:58:09.316Z,55.70
2018-07-27T09:00:52.571Z,55.10
2018-07-27T09:03:27.853Z,54.60
2018-07-27T09:08:38.178Z,53.90
2018-07-27T09:11:13.533Z,54.30
2018-07-27T09:13:49.165Z,53.90
2018-07-27T09:16:25.041Z,52.90
2018-07-27T09:19:00.370Z,53.90
2018-07-27T09:21:35.630Z,53.90
2018-07-27T09:24:10.817Z,54.00
2018-07-27T09:26:45.983Z,52.40
2018-07-27T09:29:21.071Z,51.00
2018-07-27T09:34:31.450Z,50.30
2018-07-27T09:37:06.689Z,48.20
2018-07-27T09:39:41.682Z,48.90
2018-07-27T09:42:16.919Z,47.30
2018-07-27T09:44:52.143Z,48.00
2018-07-27T09:47:27.291Z,48.10
2018-07-27T09:52:37.555Z,46.10
2018-07-27T09:55:12.770Z,46.20
2018-07-27T09:57:48.158Z,46.60
2018-07-27T10:01:28.683Z,46.10
2018-07-27T10:04:03.859Z,46.50
2018-07-27T10:06:39.263Z,46.90
2018-07-27T10:09:14.544Z,46.50
2018-07-27T10:11:49.836Z,46.70
2018-07-27T10:14:25.114Z,46.00
2018-07-27T10:17:00.640Z,46.00
2018-07-27T10:19:35.939Z,45.90
2018-07-27T10:22:11.194Z,44.80
2018-07-27T10:24:46.411Z,45.30
2018-07-27T10:27:21.749Z,44.90
2018-07-27T10:29:56.900Z,44.80
2018-07-27T10:32:31.978Z,44.40
2018-07-27T10:35:07.257Z,44.20
2018-07-27T10:37:42.540Z,44.40
2018-07-27T10:40:17.671Z,43.70
2018-07-27T10:42:52.991Z,44.00
2018-07-27T10:45:28.427Z,43.90
2018-07-27T10:48:03.486Z,43.80
2018-07-27T10:50:38.628Z,43.90
2018-07-27T10:53:14.115Z,41.90
2018-07-27T10:55:49.472Z,40.90
2018-07-27T10:58:24.615Z,42.20
2018-07-27T11:01:00.173Z,42.10
2018-07-27T11:03:35.341Z,40.50
2018-07-27T11:06:10.777Z,39.80
2018-07-27T11:08:46.246Z,41.30
2018-07-27T11:11:21.396Z,40.70
2018-07-27T11:13:56.631Z,41.70
2018-07-27T11:16:31.936Z,41.30
2018-07-27T11:19:07.454Z,41.90
2018-07-27T11:21:43.047Z,41.50
2018-07-27T11:24:18.515Z,41.70
2018-07-27T11:26:53.849Z,41.40
2018-07-27T11:29:29.655Z,39.80
2018-07-27T11:32:05.239Z,40.10
2018-07-27T11:34:40.743Z,39.30
2018-07-27T11:37:16.234Z,39.20
2018-07-27T11:39:51.462Z,39.90
2018-07-27T11:42:26.877Z,39.60
2018-07-27T11:45:01.997Z,38.70
2018-07-27T11:47:37.425Z,39.00
2018-07-27T11:50:12.619Z,38.70
2018-07-27T11:52:47.827Z,36.10
2018-07-27T11:55:23.147Z,35.50
2018-07-27T12:00:33.492Z,36.50
2018-07-27T12:05:43.570Z,36.90
2018-07-27T12:08:19.040Z,37.20
2018-07-27T12:10:54.323Z,36.90
2018-07-27T12:13:29.972Z,37.30
2018-07-27T12:16:06.107Z,37.90
2018-07-27T12:18:41.452Z,37.70
2018-07-27T12:21:16.851Z,38.10
2018-07-27T12:23:52.248Z,38.00
2018-07-27T12:26:27.403Z,37.70
2018-07-27T12:29:02.610Z,36.00
2018-07-27T12:31:37.852Z,35.30
2018-07-27T12:34:13.216Z,36.40
2018-07-27T12:36:48.474Z,36.30
2018-07-27T12:41:58.734Z,37.90
2018-07-27T12:44:33.923Z,36.70
2018-07-27T12:47:09.542Z,36.40
2018-07-27T12:49:44.875Z,36.00
2018-07-27T12:52:20.382Z,35.60
2018-07-27T12:54:55.695Z,36.10
2018-07-27T12:57:30.787Z,35.90
2018-07-27T13:00:07.736Z,35.60
2018-07-27T13:02:43.076Z,35.50
2018-07-27T13:05:18.361Z,36.30
2018-07-27T13:07:53.458Z,35.50
2018-07-27T13:10:28.692Z,35.50
2018-07-27T13:13:03.890Z,36.30
2018-07-27T13:15:39.252Z,35.70
2018-07-27T13:18:14.675Z,35.50
2018-07-27T13:20:54.574Z,35.30
2018-07-27T13:23:29.661Z,35.10
2018-07-27T13:28:43.051Z,35.80
2018-07-27T13:31:18.467Z,34.00
2018-07-27T13:34:34.888Z,35.50
2018-07-27T13:37:10.638Z,35.40
2018-07-27T13:39:46.766Z,34.30
2018-07-27T13:42:24.151Z,34.70
2018-07-27T13:44:59.502Z,34.60
2018-07-27T13:47:34.830Z,33.60
2018-07-27T13:50:10.343Z,33.60
2018-07-27T13:52:45.534Z,33.70
2018-07-27T13:55:20.936Z,33.10
2018-07-27T13:57:56.168Z,34.20
2018-07-27T14:00:31.345Z,34.70
2018-07-27T14:03:06.638Z,35.60
2018-07-27T14:05:41.784Z,35.40
2018-07-27T14:08:17.218Z,34.70
2018-07-27T14:10:52.379Z,34.00
2018-07-27T14:13:27.891Z,35.10
2018-07-27T14:16:03.143Z,34.40
2018-07-27T14:18:38.562Z,34.20
2018-07-27T14:21:14.065Z,33.70
2018-07-27T14:23:49.381Z,34.20
2018-07-27T14:26:24.685Z,34.00
2018-07-27T14:29:00.137Z,33.90
2018-07-27T14:31:35.259Z,33.10
2018-07-27T14:34:11.078Z,33.60
2018-07-27T14:36:46.452Z,33.90
2018-07-27T14:39:21.850Z,33.80
2018-07-27T14:41:57.234Z,33.30
2018-07-27T14:44:32.833Z,32.90
2018-07-27T14:47:08.051Z,34.10
2018-07-27T14:52:18.291Z,32.90
2018-07-27T14:57:28.447Z,32.40
2018-07-27T15:00:03.974Z,32.80
2018-07-27T15:02:39.165Z,32.60
2018-07-27T15:05:15.064Z,33.00
2018-07-27T15:07:50.519Z,32.40
2018-07-27T15:10:26.112Z,33.20
2018-07-27T15:13:01.340Z,33.20
2018-07-27T15:15:36.740Z,32.50
2018-07-27T15:20:46.891Z,32.90
2018-07-27T15:23:22.244Z,32.30
2018-07-27T15:25:57.584Z,32.70
2018-07-27T15:28:33.051Z,32.70
2018-07-27T15:31:08.686Z,33.30
2018-07-27T15:33:43.950Z,33.20
2018-07-27T15:36:19.282Z,33.40
2018-07-27T15:38:54.595Z,33.40
2018-07-27T15:41:29.944Z,33.00
2018-07-27T15:44:05.324Z,33.80
2018-07-27T15:46:40.466Z,33.70
2018-07-27T15:49:15.602Z,33.20
2018-07-27T15:51:50.714Z,33.20
2018-07-27T15:54:26.056Z,33.00
2018-07-27T15:57:01.324Z,33.20
2018-07-27T15:59:37.519Z,33.70
2018-07-27T16:02:12.893Z,33.50
2018-07-27T16:04:48.183Z,32.80
2018-07-27T16:07:23.493Z,33.30
2018-07-27T16:09:58.675Z,32.70
2018-07-27T16:12:34.896Z,32.80
2018-07-27T16:15:10.234Z,32.60
2018-07-27T16:17:45.371Z,32.50
2018-07-27T16:20:20.452Z,32.20
2018-07-27T16:22:55.707Z,32.30
2018-07-27T16:28:06.387Z,33.40
2018-07-27T16:30:41.745Z,33.40
2018-07-27T16:33:16.767Z,32.70
2018-07-27T16:41:01.727Z,32.20
2018-07-27T16:43:36.833Z,32.80
2018-07-27T16:46:12.183Z,32.50
2018-07-27T16:48:47.242Z,32.60
2018-07-27T16:51:22.902Z,32.50
2018-07-27T16:53:58.126Z,33.10
2018-07-27T16:56:33.414Z,33.20
2018-07-27T16:59:08.549Z,32.20
2018-07-27T17:01:43.642Z,32.40
2018-07-27T17:04:19.042Z,33.70
2018-07-27T17:06:54.343Z,33.60
2018-07-27T17:09:29.553Z,33.00
2018-07-27T17:12:05.178Z,32.90
2018-07-27T17:14:40.606Z,33.10
2018-07-27T17:17:16.287Z,33.10
2018-07-27T17:19:51.523Z,34.00
2018-07-27T17:22:26.787Z,33.10
2018-07-27T17:25:02.092Z,33.80
2018-07-27T17:27:37.531Z,33.60
2018-07-27T17:30:12.820Z,34.00
2018-07-27T17:32:48.374Z,34.40
2018-07-27T17:35:23.807Z,33.40
2018-07-27T17:40:33.933Z,33.70
2018-07-27T17:43:09.114Z,33.60
2018-07-27T17:45:44.255Z,34.60
2018-07-27T17:48:19.588Z,34.20
2018-07-27T17:50:54.698Z,34.10
2018-07-27T17:56:05.060Z,34.00
2018-07-27T17:58:40.376Z,34.50
2018-07-27T18:01:15.610Z,34.50
2018-07-27T18:03:50.656Z,35.50
2018-07-27T18:06:26.003Z,34.40
2018-07-27T18:09:01.083Z,34.60
2018-07-27T18:11:36.471Z,34.30
2018-07-27T18:14:11.786Z,33.90
2018-07-27T18:16:47.106Z,34.10
2018-07-27T18:19:22.321Z,34.50
2018-07-27T18:21:57.431Z,34.20
2018-07-27T18:24:32.747Z,34.90
2018-07-27T18:27:08.096Z,34.80
2018-07-27T18:29:43.485Z,35.60
2018-07-27T18:32:18.792Z,36.00
2018-07-27T18:34:54.292Z,36.00
2018-07-27T18:37:29.864Z,36.30
2018-07-27T18:40:06.208Z,36.60
2018-07-27T18:42:41.646Z,36.20
2018-07-27T18:45:16.867Z,36.60
2018-07-27T18:47:52.119Z,36.30
2018-07-27T18:50:27.685Z,36.90
2018-07-27T18:53:02.859Z,37.50
2018-07-27T18:55:38.359Z,37.20
2018-07-27T18:58:13.523Z,37.60
2018-07-27T19:00:48.734Z,38.50
2018-07-27T19:03:24.248Z,39.00
2018-07-27T19:05:59.593Z,39.20
2018-07-27T19:08:35.031Z,39.80
2018-07-27T19:11:10.472Z,40.60
2018-07-27T19:13:45.915Z,41.00
2018-07-27T19:16:21.108Z,41.10
2018-07-27T19:18:56.570Z,41.30
2018-07-27T19:21:31.947Z,41.80
2018-07-27T19:24:07.268Z,42.20
2018-07-27T19:26:42.480Z,42.70
2018-07-27T19:29:17.785Z,42.70
2018-07-27T19:31:53.230Z,43.10
2018-07-27T19:34:28.362Z,42.60
2018-07-27T19:37:03.475Z,42.60
2018-07-27T19:39:38.853Z,42.60
2018-07-27T19:42:14.768Z,42.30
2018-07-27T19:44:50.147Z,42.30
2018-07-27T19:47:25.266Z,43.00
2018-07-27T19:50:01.225Z,43.00
2018-07-27T19:52:36.775Z,43.90
2018-07-27T19:55:11.878Z,43.90
2018-07-27T19:57:47.032Z,44.20
2018-07-27T20:00:22.476Z,44.20
2018-07-27T20:02:57.597Z,44.20
2018-07-27T20:05:33.104Z,44.50
2018-07-27T20:08:08.304Z,44.70
2018-07-27T20:10:43.674Z,44.20
2018-07-27T20:13:19.023Z,44.90
2018-07-27T20:18:29.240Z,45.30
2018-07-27T20:21:04.548Z,45.40
2018-07-27T20:26:14.542Z,45.80
2018-07-27T20:28:50.116Z,46.00
2018-07-27T20:31:25.333Z,46.10
2018-07-27T20:34:00.634Z,46.00
2018-07-27T20:36:36.138Z,46.20
2018-07-27T20:39:13.342Z,46.60
2018-07-27T20:41:48.402Z,46.30
2018-07-27T20:44:23.750Z,46.60
2018-07-27T20:49:34.059Z,46.50
2018-07-27T20:52:09.757Z,46.90
2018-07-27T20:54:45.052Z,46.50
2018-07-27T20:57:20.216Z,46.80
2018-07-27T20:59:55.971Z,47.30
2018-07-27T21:02:31.223Z,47.60
2018-07-27T21:05:06.643Z,47.70
2018-07-27T21:07:42.740Z,47.70
2018-07-27T21:10:17.950Z,47.90
2018-07-27T21:12:53.202Z,48.60
2018-07-27T21:15:28.320Z,48.30
2018-07-27T21:18:03.670Z,48.30
2018-07-27T21:20:38.875Z,48.50
2018-07-27T21:23:14.032Z,48.50
2018-07-27T21:25:49.454Z,48.40
2018-07-27T21:28:24.714Z,48.70
2018-07-27T21:31:00.127Z,49.10
2018-07-27T21:33:35.300Z,49.30
2018-07-27T21:36:10.679Z,49.00
2018-07-27T21:41:21.028Z,49.40
2018-07-27T21:43:56.331Z,49.70
2018-07-27T21:46:31.547Z,49.90
2018-07-27T21:49:07.016Z,50.10
2018-07-27T21:51:42.088Z,50.20
2018-07-27T21:54:17.268Z,50.30
2018-07-27T21:56:52.387Z,50.50
2018-07-27T21:59:27.692Z,50.90
2018-07-27T22:02:02.970Z,51.00
2018-07-27T22:04:38.559Z,50.80
2018-07-27T22:07:13.895Z,50.70
2018-07-27T22:09:49.395Z,50.70
2018-07-27T22:12:24.591Z,50.70
2018-07-27T22:14:59.706Z,50.70
2018-07-27T22:17:35.056Z,50.60
2018-07-27T22:20:10.252Z,50.90
2018-07-27T22:22:45.560Z,50.90
2018-07-27T22:25:21.044Z,51.00
2018-07-27T22:27:56.618Z,51.40
2018-07-27T22:30:32.015Z,51.40
2018-07-27T22:33:07.307Z,51.50
2018-07-27T22:38:17.568Z,51.50
2018-07-27T22:40:52.897Z,51.60
2018-07-27T22:43:28.400Z,51.60
2018-07-27T22:46:03.550Z,51.90
2018-07-27T22:48:38.703Z,52.30
2018-07-27T22:51:14.089Z,52.50
2018-07-27T22:53:49.379Z,52.80
2018-07-27T22:56:24.596Z,53.00
2018-07-27T22:58:59.901Z,53.20
2018-07-27T23:01:35.203Z,53.30
2018-07-27T23:04:10.364Z,53.40
2018-07-27T23:09:20.323Z,53.60
2018-07-27T23:11:55.583Z,53.60
2018-07-27T23:14:30.818Z,53.60
2018-07-27T23:19:40.853Z,54.10
2018-07-27T23:22:16.075Z,54.30
2018-07-27T23:24:51.616Z,54.50
2018-07-27T23:27:26.856Z,54.50
2018-07-27T23:30:02.108Z,54.50
2018-07-27T23:32:37.431Z,54.50
2018-07-27T23:35:12.662Z,54.80
2018-07-27T23:37:48.015Z,55.10
2018-07-27T23:40:23.275Z,55.30
2018-07-27T23:42:58.407Z,55.70
2018-07-27T23:45:33.658Z,55.90
2018-07-27T23:48:08.952Z,56.10
2018-07-27T23:50:44.483Z,56.10
2018-07-27T23:53:19.801Z,56.90
2018-07-27T23:55:54.946Z,56.40
2018-07-27T23:58:30.324Z,57.00
